Time;durP1;ratioP1;P1;durP2;ratioP2;P2;SDS_P1;SDS_P2;PMS_P1;PMS_P2;Temp;Humidity;BMP_temperature;BMP_pressure;BME280_temperature;BME280_humidity;BME280_pressure;Samples;Min_cycle;Max_cycle;Signal;HPM_P1;HPM_P2
2023/09/24 00:00:56;;;;;;;2.05;1.50;;;;;;;;;;10350125;28;20506;-60
2023/09/24 00:05:59;;;;;;;2.15;1.10;;;;;;;;;;10348211;28;20458;-60
2023/09/24 00:10:59;;;;;;;1.65;1.20;;;;;;;;;;10352294;28;20057;-60
2023/09/24 00:16:06;;;;;;;2.53;1.25;;;;;;;;;;10351518;28;20122;-61
2023/09/24 00:21:06;;;;;;;2.08;1.20;;;;;;;;;;10352297;28;20489;-61
2023/09/24 00:26:07;;;;;;;3.42;1.25;;;;;;;;;;10368778;28;20042;-61
2023/09/24 00:31:08;;;;;;;2.72;1.10;;;;;;;;;;10366359;28;20072;-61
2023/09/24 00:36:08;;;;;;;3.70;1.80;;;;;;;;;;10362786;28;20076;-61
2023/09/24 00:41:09;;;;;;;4.05;1.23;;;;;;;;;;10361951;28;20557;-60
2023/09/24 00:46:11;;;;;;;1.77;1.30;;;;;;;;;;10339716;28;20157;-60
2023/09/24 00:51:18;;;;;;;3.00;1.30;;;;;;;;;;10366639;28;20109;-61
2023/09/24 00:56:24;;;;;;;3.57;1.27;;;;;;;;;;10369422;28;20033;-61
2023/09/24 01:01:24;;;;;;;3.45;1.70;;;;;;;;;;10358201;28;20113;-61
2023/09/24 01:06:25;;;;;;;2.95;1.40;;;;;;;;;;10370372;28;20546;-61
2023/09/24 01:11:27;;;;;;;3.22;1.50;;;;;;;;;;10369212;28;20049;-60
2023/09/24 01:16:27;;;;;;;1.55;1.20;;;;;;;;;;10357857;28;20053;-60
2023/09/24 01:21:28;;;;;;;1.95;1.27;;;;;;;;;;10357530;28;20052;-60
2023/09/24 01:26:29;;;;;;;1.33;1.20;;;;;;;;;;10358467;28;20026;-60
2023/09/24 01:31:30;;;;;;;2.70;1.63;;;;;;;;;;10351874;28;20442;-64
2023/09/24 01:36:32;;;;;;;1.42;1.33;;;;;;;;;;10357710;28;20057;-60
2023/09/24 01:41:33;;;;;;;4.15;1.48;;;;;;;;;;10358582;28;20049;-60
2023/09/24 01:46:34;;;;;;;2.95;1.50;;;;;;;;;;10352127;28;20054;-60
2023/09/24 01:51:35;;;;;;;8.20;1.67;;;;;;;;;;10346117;28;20026;-60
2023/09/24 01:56:36;;;;;;;10.85;1.90;;;;;;;;;;10350892;28;20189;-61
2023/09/24 02:01:37;;;;;;;2.60;1.58;;;;;;;;;;10350118;28;20566;-60
2023/09/24 02:06:37;;;;;;;2.03;1.42;;;;;;;;;;10366962;28;20421;-61
2023/09/24 02:11:38;;;;;;;2.58;1.58;;;;;;;;;;10361469;28;20033;-60
2023/09/24 02:16:40;;;;;;;1.65;1.30;;;;;;;;;;10350696;28;20030;-61
2023/09/24 02:21:41;;;;;;;3.42;1.33;;;;;;;;;;10364770;28;20029;-61
2023/09/24 02:26:41;;;;;;;3.05;1.27;;;;;;;;;;10363058;28;20026;-61
2023/09/24 02:31:42;;;;;;;3.60;1.98;;;;;;;;;;10351782;28;20104;-60
2023/09/24 02:36:43;;;;;;;5.20;1.80;;;;;;;;;;10348588;28;20026;-59
2023/09/24 02:41:45;;;;;;;5.25;1.80;;;;;;;;;;10354372;28;20351;-60
2023/09/24 02:46:45;;;;;;;2.72;1.35;;;;;;;;;;10364725;28;20063;-60
2023/09/24 02:52:06;;;;;;;2.85;1.30;;;;;;;;;;10355732;28;20042;-61
2023/09/24 02:57:08;;;;;;;3.55;1.35;;;;;;;;;;10322128;28;20410;-61
2023/09/24 03:02:09;;;;;;;3.70;1.98;;;;;;;;;;10318841;28;20042;-60
2023/09/24 03:07:10;;;;;;;2.67;1.55;;;;;;;;;;10318891;28;20506;-61
2023/09/24 03:12:11;;;;;;;2.15;1.60;;;;;;;;;;10319282;28;20080;-60
2023/09/24 03:17:13;;;;;;;1.73;1.45;;;;;;;;;;10318176;28;20379;-60
2023/09/24 03:22:13;;;;;;;3.10;1.85;;;;;;;;;;10308824;28;20066;-59
2023/09/24 03:27:15;;;;;;;5.45;1.70;;;;;;;;;;10307112;28;20042;-60
2023/09/24 03:32:15;;;;;;;3.08;1.50;;;;;;;;;;10317542;28;20073;-60
2023/09/24 03:37:16;;;;;;;1.77;1.48;;;;;;;;;;10361057;28;20129;-61
2023/09/24 03:42:16;;;;;;;7.38;1.33;;;;;;;;;;10350079;28;20029;-61
2023/09/24 03:47:17;;;;;;;3.08;1.30;;;;;;;;;;10349825;28;20132;-60
2023/09/24 03:52:18;;;;;;;2.53;1.60;;;;;;;;;;10355761;28;20524;-60
2023/09/24 03:57:18;;;;;;;3.45;1.55;;;;;;;;;;10361178;28;20026;-60
2023/09/24 04:02:19;;;;;;;8.00;1.77;;;;;;;;;;10348275;28;20030;-60
2023/09/24 04:07:20;;;;;;;4.20;1.50;;;;;;;;;;10354862;28;20030;-61
2023/09/24 04:12:21;;;;;;;8.13;1.40;;;;;;;;;;10342674;28;20503;-61
2023/09/24 04:17:22;;;;;;;2.75;1.38;;;;;;;;;;10355110;28;20132;-59
2023/09/24 04:22:23;;;;;;;4.47;1.60;;;;;;;;;;10350140;28;20101;-61
2023/09/24 04:27:25;;;;;;;3.15;1.40;;;;;;;;;;10359189;28;20116;-61
2023/09/24 04:32:25;;;;;;;8.80;1.48;;;;;;;;;;10352406;28;20122;-60
2023/09/24 04:37:26;;;;;;;4.95;1.55;;;;;;;;;;10348213;28;20406;-60
2023/09/24 04:42:27;;;;;;;2.58;1.27;;;;;;;;;;10360203;28;20033;-63
2023/09/24 04:47:27;;;;;;;2.88;1.35;;;;;;;;;;10352263;28;20050;-62
2023/09/24 04:52:28;;;;;;;2.05;1.30;;;;;;;;;;10349115;28;20114;-61
2023/09/24 04:57:29;;;;;;;2.38;1.30;;;;;;;;;;10351512;28;20045;-61
2023/09/24 05:02:29;;;;;;;3.30;1.25;;;;;;;;;;10346019;28;20434;-61
2023/09/24 05:07:30;;;;;;;12.52;1.40;;;;;;;;;;10347317;28;20029;-61
2023/09/24 05:12:30;;;;;;;10.98;1.55;;;;;;;;;;10349030;28;20032;-62
2023/09/24 05:17:33;;;;;;;5.45;1.30;;;;;;;;;;10353951;28;20029;-62
2023/09/24 05:22:34;;;;;;;1.25;1.08;;;;;;;;;;10354435;28;20038;-61
2023/09/24 05:27:34;;;;;;;1.92;1.30;;;;;;;;;;10356007;28;20049;-61
2023/09/24 05:32:35;;;;;;;2.40;1.20;;;;;;;;;;10352989;28;20033;-60
2023/09/24 05:37:36;;;;;;;9.43;1.20;;;;;;;;;;10350977;28;20034;-61
2023/09/24 05:42:36;;;;;;;1.40;1.30;;;;;;;;;;10364684;28;20022;-61
2023/09/24 05:47:37;;;;;;;5.80;1.58;;;;;;;;;;10368803;28;20485;-61
2023/09/24 05:52:38;;;;;;;1.15;1.05;;;;;;;;;;10368389;28;20033;-61
2023/09/24 05:57:38;;;;;;;7.75;1.63;;;;;;;;;;10367690;28;20036;-60
2023/09/24 06:02:39;;;;;;;4.93;1.30;;;;;;;;;;10368283;28;20034;-59
2023/09/24 06:07:39;;;;;;;15.85;1.77;;;;;;;;;;10357325;28;20084;-61
2023/09/24 06:12:40;;;;;;;7.28;1.50;;;;;;;;;;10360218;28;20022;-61
2023/09/24 06:17:41;;;;;;;10.25;1.48;;;;;;;;;;10359743;28;20026;-61
2023/09/24 06:22:45;;;;;;;1.95;1.10;;;;;;;;;;10340627;28;20080;-62
2023/09/24 06:27:46;;;;;;;3.92;1.50;;;;;;;;;;10350046;28;20034;-62
2023/09/24 06:32:47;;;;;;;4.75;1.38;;;;;;;;;;10358679;28;20031;-62
2023/09/24 06:37:48;;;;;;;2.58;1.20;;;;;;;;;;10342712;28;20510;-61
2023/09/24 06:42:49;;;;;;;1.80;1.10;;;;;;;;;;10342643;28;20031;-63
2023/09/24 06:47:49;;;;;;;1.20;1.00;;;;;;;;;;10336851;28;20042;-62
2023/09/24 06:52:50;;;;;;;1.42;1.08;;;;;;;;;;10337414;28;20026;-63
2023/09/24 06:57:50;;;;;;;2.75;0.90;;;;;;;;;;10344224;28;20125;-62
2023/09/24 07:02:51;;;;;;;0.85;0.80;;;;;;;;;;10358559;28;20096;-63
2023/09/24 07:07:53;;;;;;;1.67;1.00;;;;;;;;;;10345893;28;20041;-63
2023/09/24 07:12:53;;;;;;;5.32;1.50;;;;;;;;;;10337556;28;20065;-66
2023/09/24 07:17:55;;;;;;;2.45;1.45;;;;;;;;;;10356688;28;20053;-65
2023/09/24 07:22:55;;;;;;;6.78;1.10;;;;;;;;;;10355268;28;20528;-66
2023/09/24 07:27:56;;;;;;;1.77;1.40;;;;;;;;;;10354897;28;20096;-64
2023/09/24 07:32:57;;;;;;;1.48;1.20;;;;;;;;;;10347996;28;20092;-65
2023/09/24 07:37:57;;;;;;;2.00;1.00;;;;;;;;;;10331888;28;20100;-65
2023/09/24 07:42:58;;;;;;;1.15;1.02;;;;;;;;;;10362530;28;20389;-66
2023/09/24 07:47:58;;;;;;;4.28;1.27;;;;;;;;;;10339701;28;20054;-65
2023/09/24 07:52:59;;;;;;;3.45;1.00;;;;;;;;;;10327914;28;20386;-64
2023/09/24 07:58:00;;;;;;;1.85;0.77;;;;;;;;;;10328666;28;20030;-64
2023/09/24 08:03:00;;;;;;;3.25;1.02;;;;;;;;;;10339516;28;20084;-65
2023/09/24 08:08:01;;;;;;;1.58;1.13;;;;;;;;;;10340529;28;20030;-66
2023/09/24 08:13:04;;;;;;;1.95;1.02;;;;;;;;;;10328558;28;20053;-66
2023/09/24 08:18:09;;;;;;;1.77;0.98;;;;;;;;;;10346298;28;20026;-65
2023/09/24 08:23:09;;;;;;;1.17;1.00;;;;;;;;;;10328888;28;20513;-64
2023/09/24 08:28:10;;;;;;;5.03;0.90;;;;;;;;;;10327362;28;20023;-64
2023/09/24 08:33:11;;;;;;;1.23;1.00;;;;;;;;;;10327954;28;20102;-65
2023/09/24 08:38:13;;;;;;;3.00;1.00;;;;;;;;;;10351326;28;20034;-65
2023/09/24 08:43:22;;;;;;;1.10;1.00;;;;;;;;;;10342624;28;20031;-60
2023/09/24 08:48:23;;;;;;;;;;;;;;;;;;10339446;28;20038;-63
2023/09/24 08:53:28;;;;;;;1.35;0.77;;;;;;;;;;10335414;28;20421;-61
2023/09/24 08:58:28;;;;;;;1.52;1.10;;;;;;;;;;10344756;28;20092;-60
2023/09/24 09:03:31;;;;;;;1.58;0.98;;;;;;;;;;10346486;28;20528;-60
2023/09/24 09:08:52;;;;;;;1.10;1.00;;;;;;;;;;10346211;28;20034;-60
2023/09/24 09:13:53;;;;;;;4.45;0.80;;;;;;;;;;10357564;28;20315;-60
2023/09/24 09:19:01;;;;;;;1.33;1.10;;;;;;;;;;10348951;28;20038;-59
2023/09/24 09:24:01;;;;;;;1.00;0.90;;;;;;;;;;10357408;28;20026;-61
2023/09/24 09:29:04;;;;;;;1.25;1.05;;;;;;;;;;10334057;28;20035;-60
2023/09/24 09:34:06;;;;;;;1.15;1.00;;;;;;;;;;10345995;28;20026;-59
2023/09/24 09:39:07;;;;;;;1.35;1.00;;;;;;;;;;10346033;28;20500;-60
2023/09/24 09:44:08;;;;;;;1.35;1.20;;;;;;;;;;10344608;28;20034;-60
2023/09/24 09:49:12;;;;;;;1.20;1.10;;;;;;;;;;10336662;28;20109;-60
2023/09/24 09:54:15;;;;;;;2.08;1.10;;;;;;;;;;10341930;28;20072;-60
2023/09/24 09:59:16;;;;;;;1.05;0.85;;;;;;;;;;10331863;28;20030;-60
2023/09/24 10:04:17;;;;;;;0.95;0.85;;;;;;;;;;10332768;28;20027;-60
2023/09/24 10:09:27;;;;;;;2.47;1.20;;;;;;;;;;10332805;28;20057;-60
2023/09/24 10:14:37;;;;;;;1.00;0.90;;;;;;;;;;10342970;28;20257;-59
2023/09/24 10:19:55;;;;;;;1.90;1.05;;;;;;;;;;10343891;28;20026;-60
2023/09/24 10:24:56;;;;;;;;;;;;;;;;;;10364327;28;20034;-60
2023/09/24 10:29:57;;;;;;;2.92;0.80;;;;;;;;;;10346737;28;20008;-60
2023/09/24 10:34:58;;;;;;;0.90;0.82;;;;;;;;;;10330486;28;20018;-60
2023/09/24 10:39:58;;;;;;;1.27;0.90;;;;;;;;;;10330524;28;20034;-60
2023/09/24 10:45:08;;;;;;;1.02;0.93;;;;;;;;;;10343335;28;20030;-59
2023/09/24 10:50:18;;;;;;;1.15;1.00;;;;;;;;;;10329862;28;20463;-60
2023/09/24 10:55:33;;;;;;;1.48;0.90;;;;;;;;;;10342602;28;20478;-60
2023/09/24 11:00:35;;;;;;;1.33;0.90;;;;;;;;;;10333849;28;20164;-60
2023/09/24 11:05:42;;;;;;;0.95;0.93;;;;;;;;;;10337476;28;20027;-58
2023/09/24 11:10:49;;;;;;;0.90;0.90;;;;;;;;;;10333752;28;20028;-58
2023/09/24 11:15:49;;;;;;;0.73;0.73;;;;;;;;;;10353354;28;20099;-58
2023/09/24 11:20:53;;;;;;;0.85;0.80;;;;;;;;;;10336382;28;20080;-59
2023/09/24 11:25:54;;;;;;;1.20;0.73;;;;;;;;;;10353428;28;20057;-59
2023/09/24 11:30:54;;;;;;;0.88;0.80;;;;;;;;;;10354031;28;20019;-60
2023/09/24 11:35:56;;;;;;;1.10;0.88;;;;;;;;;;10340107;28;20478;-60
2023/09/24 11:41:12;;;;;;;1.42;0.90;;;;;;;;;;10340538;28;20034;-59
2023/09/24 11:46:32;;;;;;;1.52;1.13;;;;;;;;;;10341395;28;20379;-60
2023/09/24 11:51:33;;;;;;;1.27;1.10;;;;;;;;;;10331415;28;20022;-61
2023/09/24 11:56:33;;;;;;;1.00;0.90;;;;;;;;;;10328540;28;20030;-60
2023/09/24 12:01:34;;;;;;;1.27;0.90;;;;;;;;;;10339692;28;20031;-60
2023/09/24 12:06:35;;;;;;;1.02;0.93;;;;;;;;;;10340036;28;20285;-60
2023/09/24 12:11:36;;;;;;;0.98;0.82;;;;;;;;;;10339110;28;20050;-60
2023/09/24 12:16:36;;;;;;;1.98;1.02;;;;;;;;;;10331430;28;20030;-60
2023/09/24 12:21:37;;;;;;;1.05;1.00;;;;;;;;;;10338217;28;20108;-60
2023/09/24 12:26:37;;;;;;;1.25;1.15;;;;;;;;;;10336159;28;20061;-59
2023/09/24 12:31:38;;;;;;;0.80;0.75;;;;;;;;;;10335049;28;20035;-64
2023/09/24 12:36:39;;;;;;;3.53;0.85;;;;;;;;;;10336330;28;20061;-64
2023/09/24 12:41:39;;;;;;;0.80;0.80;;;;;;;;;;10359979;28;20036;-63
2023/09/24 12:46:40;;;;;;;1.25;1.00;;;;;;;;;;10347768;28;20046;-64
2023/09/24 12:51:40;;;;;;;0.88;0.80;;;;;;;;;;10345461;28;20121;-63
2023/09/24 12:56:41;;;;;;;3.80;0.85;;;;;;;;;;10346691;28;20107;-64
2023/09/24 13:01:43;;;;;;;0.80;0.80;;;;;;;;;;10346760;28;20401;-64
2023/09/24 13:06:44;;;;;;;1.10;1.00;;;;;;;;;;10346133;28;20026;-64
2023/09/24 13:11:48;;;;;;;0.82;0.82;;;;;;;;;;10333285;28;20459;-64
2023/09/24 13:16:49;;;;;;;1.60;1.00;;;;;;;;;;10337847;28;20029;-65
2023/09/24 13:21:50;;;;;;;1.17;1.08;;;;;;;;;;10347208;28;20031;-64
2023/09/24 13:26:50;;;;;;;1.08;0.80;;;;;;;;;;10333711;28;20053;-65
2023/09/24 13:31:51;;;;;;;0.88;0.80;;;;;;;;;;10344768;28;20141;-60
2023/09/24 13:36:52;;;;;;;5.95;1.00;;;;;;;;;;10341460;28;20025;-60
2023/09/24 13:41:52;;;;;;;1.88;0.80;;;;;;;;;;10344101;28;20034;-60
2023/09/24 13:46:53;;;;;;;0.98;0.90;;;;;;;;;;10336672;28;20168;-59
2023/09/24 13:51:54;;;;;;;1.45;0.88;;;;;;;;;;10348735;28;20030;-60
2023/09/24 13:56:54;;;;;;;1.00;0.95;;;;;;;;;;10344817;28;20014;-60
2023/09/24 14:01:55;;;;;;;0.68;0.60;;;;;;;;;;10332143;28;20034;-60
2023/09/24 14:06:55;;;;;;;0.85;0.85;;;;;;;;;;10332471;28;20057;-61
2023/09/24 14:17:15;;;;;;;0.75;0.70;;;;;;;;;;10342983;28;20057;-59
2023/09/24 14:22:16;;;;;;;0.82;0.82;;;;;;;;;;10343768;28;20121;-60
2023/09/24 14:27:16;;;;;;;1.08;1.00;;;;;;;;;;10353950;28;20030;-60
2023/09/24 14:32:17;;;;;;;1.00;0.77;;;;;;;;;;10343812;28;20393;-60
2023/09/24 14:37:18;;;;;;;1.10;1.05;;;;;;;;;;10342733;28;20269;-60
2023/09/24 14:42:18;;;;;;;0.93;0.80;;;;;;;;;;10330660;28;20026;-60
2023/09/24 14:47:19;;;;;;;0.93;0.80;;;;;;;;;;10352300;28;20053;-61
2023/09/24 14:52:20;;;;;;;0.90;0.90;;;;;;;;;;10334409;28;20029;-60
2023/09/24 14:57:21;;;;;;;0.88;0.73;;;;;;;;;;10330099;28;20022;-60
2023/09/24 15:02:21;;;;;;;0.70;0.70;;;;;;;;;;10329620;28;20102;-60
2023/09/24 15:07:22;;;;;;;0.82;0.80;;;;;;;;;;10329663;28;20478;-59
2023/09/24 15:12:23;;;;;;;1.02;0.93;;;;;;;;;;10341642;28;20014;-60
2023/09/24 15:17:23;;;;;;;0.60;0.60;;;;;;;;;;10344936;28;20462;-61
2023/09/24 15:22:24;;;;;;;0.85;0.70;;;;;;;;;;10352881;28;20040;-60
2023/09/24 15:27:25;;;;;;;0.75;0.75;;;;;;;;;;10364043;28;20058;-60
2023/09/24 15:32:26;;;;;;;1.17;0.88;;;;;;;;;;10351713;28;20022;-61
2023/09/24 15:37:27;;;;;;;1.00;0.90;;;;;;;;;;10364839;28;20053;-64
2023/09/24 15:42:27;;;;;;;0.98;0.73;;;;;;;;;;10352383;28;20030;-65
2023/09/24 15:47:29;;;;;;;0.70;0.70;;;;;;;;;;10363364;28;20050;-65
2023/09/24 15:52:29;;;;;;;1.00;1.00;;;;;;;;;;10365787;28;20425;-63
2023/09/24 15:57:30;;;;;;;0.88;0.88;;;;;;;;;;10351395;28;20033;-64
2023/09/24 16:02:32;;;;;;;0.70;0.70;;;;;;;;;;10360131;28;20694;-65
2023/09/24 16:07:33;;;;;;;0.80;0.80;;;;;;;;;;10345375;28;20034;-64
2023/09/24 16:12:34;;;;;;;0.88;0.88;;;;;;;;;;10339780;28;20355;-64
2023/09/24 16:17:37;;;;;;;0.60;0.60;;;;;;;;;;10348938;28;20026;-65
2023/09/24 16:22:39;;;;;;;0.88;0.80;;;;;;;;;;10363192;28;20021;-64
2023/09/24 16:27:39;;;;;;;0.95;0.80;;;;;;;;;;10351314;28;20041;-65
2023/09/24 16:32:40;;;;;;;0.80;0.80;;;;;;;;;;10364158;28;20030;-59
2023/09/24 16:37:43;;;;;;;1.40;0.93;;;;;;;;;;10343644;28;20072;-60
2023/09/24 16:42:49;;;;;;;0.63;0.63;;;;;;;;;;10338685;28;20023;-59
2023/09/24 16:47:51;;;;;;;0.98;0.88;;;;;;;;;;10344968;28;20413;-59
2023/09/24 16:52:52;;;;;;;0.80;0.80;;;;;;;;;;10340388;28;20026;-60
2023/09/24 16:57:52;;;;;;;1.45;0.75;;;;;;;;;;10338719;28;20158;-60
2023/09/24 17:02:53;;;;;;;0.90;0.90;;;;;;;;;;10359878;28;20112;-60
2023/09/24 17:07:54;;;;;;;0.82;0.77;;;;;;;;;;10357779;28;20394;-60
2023/09/24 17:12:55;;;;;;;0.80;0.80;;;;;;;;;;10349866;28;20072;-60
2023/09/24 17:17:59;;;;;;;1.05;0.80;;;;;;;;;;10363982;28;20125;-59
2023/09/24 17:22:59;;;;;;;2.13;1.00;;;;;;;;;;10369420;28;20276;-60
2023/09/24 17:28:01;;;;;;;0.77;0.77;;;;;;;;;;10357060;28;20252;-60
2023/09/24 17:33:03;;;;;;;1.75;0.90;;;;;;;;;;10369138;28;20272;-60
2023/09/24 17:38:03;;;;;;;0.82;0.80;;;;;;;;;;10368693;28;20256;-60
2023/09/24 17:43:04;;;;;;;1.15;0.90;;;;;;;;;;10368447;28;20160;-60
2023/09/24 17:48:05;;;;;;;0.80;0.80;;;;;;;;;;10344076;28;20042;-60
2023/09/24 17:53:05;;;;;;;1.00;0.80;;;;;;;;;;10356023;28;20025;-60
2023/09/24 17:58:06;;;;;;;1.23;0.70;;;;;;;;;;10356074;28;20092;-59
2023/09/24 18:03:07;;;;;;;1.13;1.02;;;;;;;;;;10367619;28;20029;-59
2023/09/24 18:08:07;;;;;;;1.13;0.90;;;;;;;;;;10365957;28;20488;-59
2023/09/24 18:13:08;;;;;;;0.70;0.70;;;;;;;;;;10367270;28;20018;-60
2023/09/24 18:18:08;;;;;;;0.80;0.80;;;;;;;;;;10365938;28;20161;-63
2023/09/24 18:23:09;;;;;;;1.70;0.80;;;;;;;;;;10366301;28;20026;-60
2023/09/24 18:28:10;;;;;;;0.98;0.90;;;;;;;;;;10365943;28;20033;-60
2023/09/24 18:33:12;;;;;;;1.00;0.80;;;;;;;;;;10365886;28;20283;-60
2023/09/24 18:38:13;;;;;;;0.77;0.77;;;;;;;;;;10353768;28;20520;-59
2023/09/24 18:43:13;;;;;;;0.88;0.80;;;;;;;;;;10353680;28;20076;-60
2023/09/24 18:48:15;;;;;;;0.80;0.77;;;;;;;;;;10353772;28;20046;-60
2023/09/24 18:53:16;;;;;;;1.05;0.77;;;;;;;;;;10353475;28;20084;-60
2023/09/24 18:58:17;;;;;;;0.80;0.80;;;;;;;;;;10366031;28;20029;-60
2023/09/24 19:03:17;;;;;;;0.75;0.75;;;;;;;;;;10353761;28;20029;-60
2023/09/24 19:08:18;;;;;;;0.85;0.85;;;;;;;;;;10365496;28;20045;-59
2023/09/24 19:13:19;;;;;;;1.27;0.93;;;;;;;;;;10351653;28;20540;-59
2023/09/24 19:18:19;;;;;;;2.55;0.90;;;;;;;;;;10360387;28;20117;-62
2023/09/24 19:23:20;;;;;;;1.40;0.90;;;;;;;;;;10358846;28;20110;-60
2023/09/24 19:28:21;;;;;;;0.80;0.80;;;;;;;;;;10363829;28;20018;-60
2023/09/24 19:33:21;;;;;;;1.08;0.90;;;;;;;;;;10348746;28;20030;-60
2023/09/24 19:38:22;;;;;;;0.70;0.70;;;;;;;;;;10354411;28;20030;-60
2023/09/24 19:43:23;;;;;;;0.73;0.73;;;;;;;;;;10343141;28;20443;-60
2023/09/24 19:48:25;;;;;;;3.20;0.80;;;;;;;;;;10355004;28;20125;-60
2023/09/24 19:53:26;;;;;;;5.28;0.90;;;;;;;;;;10358547;28;20029;-63
2023/09/24 19:58:28;;;;;;;2.25;1.00;;;;;;;;;;10352342;28;20390;-60
2023/09/24 20:03:29;;;;;;;1.20;0.90;;;;;;;;;;10342121;28;20405;-60
2023/09/24 20:08:34;;;;;;;9.95;1.52;;;;;;;;;;10343210;28;20139;-60
2023/09/24 20:13:39;;;;;;;6.35;1.63;;;;;;;;;;10339679;28;20037;-60
2023/09/24 20:18:40;;;;;;;3.90;1.20;;;;;;;;;;10340087;28;20096;-60
2023/09/24 20:23:40;;;;;;;4.28;1.60;;;;;;;;;;10346729;28;20083;-64
2023/09/24 20:28:41;;;;;;;6.97;1.15;;;;;;;;;;10335308;28;20031;-68
2023/09/24 20:33:42;;;;;;;13.45;2.15;;;;;;;;;;10340582;28;20030;-65
2023/09/24 20:38:42;;;;;;;11.50;1.73;;;;;;;;;;10350662;28;20042;-62
2023/09/24 20:43:43;;;;;;;5.55;1.52;;;;;;;;;;10344567;28;20445;-62
2023/09/24 20:48:44;;;;;;;3.65;1.30;;;;;;;;;;10349296;28;20381;-62
2023/09/24 20:53:44;;;;;;;5.15;1.40;;;;;;;;;;10365005;28;20097;-63
2023/09/24 20:58:47;;;;;;;5.65;1.38;;;;;;;;;;10358078;28;20059;-62
2023/09/24 21:03:48;;;;;;;6.97;1.30;;;;;;;;;;10354756;28;20478;-63
2023/09/24 21:08:48;;;;;;;4.88;1.30;;;;;;;;;;10353010;28;20033;-62
2023/09/24 21:13:50;;;;;;;6.85;1.30;;;;;;;;;;10357904;28;20549;-63
2023/09/24 21:18:52;;;;;;;11.93;1.98;;;;;;;;;;10360145;28;20113;-62
2023/09/24 21:23:53;;;;;;;2.78;1.23;;;;;;;;;;10362604;28;20333;-63
2023/09/24 21:28:54;;;;;;;3.17;1.10;;;;;;;;;;10360581;28;20040;-63
2023/09/24 21:33:55;;;;;;;3.47;1.27;;;;;;;;;;10354025;28;20528;-63
2023/09/24 21:38:55;;;;;;;4.00;1.52;;;;;;;;;;10357860;28;20037;-63
2023/09/24 21:43:56;;;;;;;2.42;1.20;;;;;;;;;;10359464;28;20169;-63
2023/09/24 21:48:58;;;;;;;2.85;1.40;;;;;;;;;;10348357;28;20605;-62
2023/09/24 21:53:58;;;;;;;3.53;1.50;;;;;;;;;;10344707;28;20129;-62
2023/09/24 21:59:00;;;;;;;3.10;1.30;;;;;;;;;;10345178;28;20058;-60
2023/09/24 22:04:01;;;;;;;2.58;1.25;;;;;;;;;;10354816;28;20034;-59
2023/09/24 22:09:01;;;;;;;2.05;1.30;;;;;;;;;;10350406;28;20029;-60
2023/09/24 22:14:02;;;;;;;4.97;1.10;;;;;;;;;;10352128;28;20015;-60
2023/09/24 22:19:03;;;;;;;5.72;1.13;;;;;;;;;;10353340;28;20389;-60
2023/09/24 22:24:04;;;;;;;1.98;1.00;;;;;;;;;;10346506;28;20030;-59
2023/09/24 22:29:06;;;;;;;4.60;1.30;;;;;;;;;;10348275;28;20387;-60
2023/09/24 22:34:06;;;;;;;6.82;1.42;;;;;;;;;;10348279;28;20033;-58
2023/09/24 22:39:07;;;;;;;2.28;1.30;;;;;;;;;;10355480;28;20033;-58
2023/09/24 22:44:08;;;;;;;2.60;1.15;;;;;;;;;;10356197;28;20042;-59
2023/09/24 22:49:08;;;;;;;4.97;1.58;;;;;;;;;;10341796;28;20046;-58
2023/09/24 22:54:09;;;;;;;13.40;1.10;;;;;;;;;;10342082;28;20049;-56
2023/09/24 22:59:10;;;;;;;3.95;1.23;;;;;;;;;;10342173;28;20030;-56
2023/09/24 23:04:11;;;;;;;4.75;1.30;;;;;;;;;;10346507;28;20026;-57
2023/09/24 23:09:11;;;;;;;4.82;1.33;;;;;;;;;;10336608;28;20027;-56
2023/09/24 23:14:12;;;;;;;2.05;0.95;;;;;;;;;;10343071;28;20022;-56
2023/09/24 23:19:13;;;;;;;3.45;1.42;;;;;;;;;;10350013;28;20241;-57
2023/09/24 23:24:13;;;;;;;5.45;1.10;;;;;;;;;;10341313;28;20025;-56
2023/09/24 23:29:14;;;;;;;1.67;1.20;;;;;;;;;;10338288;28;20034;-57
2023/09/24 23:34:14;;;;;;;5.75;1.40;;;;;;;;;;10328496;28;20026;-58
2023/09/24 23:39:15;;;;;;;1.83;1.20;;;;;;;;;;10340760;28;20481;-56
2023/09/24 23:44:16;;;;;;;2.85;1.55;;;;;;;;;;10352777;28;20483;-57
2023/09/24 23:49:19;;;;;;;4.28;1.17;;;;;;;;;;10331055;28;20049;-56
2023/09/24 23:54:20;;;;;;;1.75;0.95;;;;;;;;;;10336261;28;20029;-59
2023/09/24 23:59:20;;;;;;;3.00;1.30;;;;;;;;;;10344007;28;20486;-56
